Time;durP1;ratioP1;P1;durP2;ratioP2;P2;SDS_P1;SDS_P2;PMS_P1;PMS_P2;Temp;Humidity;BMP_temperature;BMP_pressure;BME280_temperature;BME280_humidity;BME280_pressure;Samples;Min_cycle;Max_cycle;Signal;HPM_P1;HPM_P2
2021/01/29 00:00:15;;;;;;;2.92;0.80;;;7.40;99.90;;;;;;5039559;28;20017;-83
2021/01/29 00:02:40;;;;;;;0.85;0.65;;;7.40;99.90;;;;;;5039744;28;20063;-83
2021/01/29 00:05:08;;;;;;;1.15;0.70;;;7.60;99.90;;;;;;5039473;28;20025;-84
2021/01/29 00:07:34;;;;;;;1.50;0.60;;;7.60;99.90;;;;;;5057175;28;20109;-83
2021/01/29 00:10:00;;;;;;;2.53;0.75;;;7.70;99.90;;;;;;5039471;28;20075;-83
2021/01/29 00:12:26;;;;;;;0.90;0.70;;;7.70;99.90;;;;;;5039347;28;20079;-83
2021/01/29 00:14:52;;;;;;;0.73;0.60;;;7.70;99.90;;;;;;5039259;28;20408;-83
2021/01/29 00:17:18;;;;;;;1.00;0.50;;;7.70;99.90;;;;;;5039283;28;20021;-83
2021/01/29 00:19:44;;;;;;;0.60;0.57;;;7.60;99.90;;;;;;5038968;28;20049;-83
2021/01/29 00:22:11;;;;;;;3.42;0.60;;;7.60;99.90;;;;;;5039219;28;20465;-83
2021/01/29 00:24:37;;;;;;;1.63;0.73;;;7.60;99.90;;;;;;5057056;28;20019;-83
2021/01/29 00:27:04;;;;;;;1.55;0.60;;;7.50;99.90;;;;;;5039056;28;20083;-83
2021/01/29 00:29:31;;;;;;;0.95;0.68;;;7.50;99.90;;;;;;5039076;28;20443;-83
2021/01/29 00:31:56;;;;;;;0.80;0.60;;;7.40;99.90;;;;;;5039014;28;20110;-83
2021/01/29 00:34:22;;;;;;;4.45;0.80;;;7.40;99.90;;;;;;5038961;28;20056;-83
2021/01/29 00:36:48;;;;;;;1.88;0.75;;;7.50;99.90;;;;;;5038868;28;20025;-83
2021/01/29 00:39:14;;;;;;;1.25;0.55;;;7.50;99.90;;;;;;5056667;28;20036;-83
2021/01/29 00:41:40;;;;;;;2.20;0.80;;;7.50;99.90;;;;;;5039022;28;20060;-84
2021/01/29 00:44:06;;;;;;;1.45;0.70;;;7.50;99.90;;;;;;5038751;28;20024;-83
2021/01/29 00:46:31;;;;;;;1.35;0.77;;;7.50;99.90;;;;;;5056616;28;20021;-83
2021/01/29 00:48:57;;;;;;;1.60;0.90;;;7.50;99.90;;;;;;5039447;28;20021;-83
2021/01/29 00:51:23;;;;;;;3.50;0.77;;;7.50;99.90;;;;;;5038874;28;20037;-83
2021/01/29 00:53:49;;;;;;;1.02;0.77;;;7.50;99.90;;;;;;5038559;28;20025;-83
2021/01/29 00:56:14;;;;;;;0.77;0.70;;;7.50;99.90;;;;;;5038521;28;20476;-83
2021/01/29 00:58:40;;;;;;;0.85;0.63;;;7.40;99.90;;;;;;5038489;28;20063;-83
2021/01/29 01:01:06;;;;;;;1.90;0.90;;;7.40;99.90;;;;;;5038469;28;20536;-83
2021/01/29 01:03:33;;;;;;;2.90;0.90;;;7.40;99.90;;;;;;5038378;28;20021;-83
2021/01/29 01:05:59;;;;;;;0.95;0.77;;;7.40;99.90;;;;;;5056269;28;20473;-83
2021/01/29 01:08:24;;;;;;;2.03;0.80;;;7.60;99.90;;;;;;5038196;28;20031;-84
2021/01/29 01:10:50;;;;;;;4.35;1.10;;;7.70;99.90;;;;;;5038300;28;20021;-83
2021/01/29 01:13:16;;;;;;;1.20;0.90;;;7.80;99.90;;;;;;5038175;28;20492;-83
2021/01/29 01:15:42;;;;;;;1.27;0.90;;;7.70;99.90;;;;;;5038883;28;20029;-82
2021/01/29 01:18:09;;;;;;;2.80;1.00;;;7.70;99.90;;;;;;5038128;28;20048;-83
2021/01/29 01:20:36;;;;;;;2.28;1.00;;;7.70;99.90;;;;;;5037899;28;20041;-82
2021/01/29 01:23:02;;;;;;;1.23;1.05;;;7.60;99.90;;;;;;5038003;28;20021;-84
2021/01/29 01:25:28;;;;;;;1.15;0.93;;;7.60;99.90;;;;;;5038029;28;20048;-82
2021/01/29 01:27:55;;;;;;;5.63;1.30;;;7.60;99.90;;;;;;5037918;28;20067;-84
2021/01/29 01:30:26;;;;;;;1.60;1.05;;;7.60;99.90;;;;;;5037717;28;20473;-84
2021/01/29 01:32:51;;;;;;;1.95;1.20;;;7.60;99.90;;;;;;5055795;28;20020;-84
2021/01/29 01:35:19;;;;;;;1.38;1.27;;;7.60;99.90;;;;;;5055645;28;20025;-82
2021/01/29 01:37:45;;;;;;;2.67;1.40;;;7.60;99.90;;;;;;5037622;28;20075;-82
2021/01/29 01:40:12;;;;;;;2.03;1.33;;;7.50;99.90;;;;;;5037650;28;20028;-82
2021/01/29 01:42:38;;;;;;;1.98;1.15;;;7.50;99.90;;;;;;5055816;28;20017;-83
2021/01/29 01:45:28;;;;;;;1.67;1.20;;;7.50;99.90;;;;;;5055531;28;20027;-82
2021/01/29 01:48:02;;;;;;;3.08;1.55;;;7.50;99.90;;;;;;5037538;28;20047;-84
2021/01/29 01:50:33;;;;;;;2.58;1.50;;;7.40;99.90;;;;;;5037531;28;20389;-84
2021/01/29 01:53:02;;;;;;;1.70;1.33;;;7.40;99.90;;;;;;5037466;28;20025;-84
2021/01/29 01:55:37;;;;;;;2.75;1.48;;;7.40;99.90;;;;;;5037396;28;20036;-84
2021/01/29 01:58:05;;;;;;;3.38;1.42;;;7.40;99.90;;;;;;5037319;28;20025;-83
2021/01/29 02:00:32;;;;;;;2.55;1.70;;;7.40;99.90;;;;;;5037368;28;20051;-83
2021/01/29 02:03:06;;;;;;;2.40;1.50;;;7.40;99.90;;;;;;5037274;28;20028;-84
2021/01/29 02:05:35;;;;;;;1.80;1.50;;;7.30;99.90;;;;;;5055477;28;20488;-81
2021/01/29 02:08:09;;;;;;;4.78;1.70;;;7.30;99.90;;;;;;5055081;28;20055;-84
2021/01/29 02:10:35;;;;;;;2.13;1.77;;;7.30;99.90;;;;;;5037167;28;20025;-82
2021/01/29 02:13:03;;;;;;;3.47;1.65;;;7.30;99.90;;;;;;5037113;28;20025;-84
2021/01/29 02:15:35;;;;;;;3.00;1.70;;;7.30;99.90;;;;;;5037040;28;20047;-83
2021/01/29 02:18:20;;;;;;;2.00;1.40;;;7.30;99.90;;;;;;5054994;28;20033;-82
2021/01/29 02:21:03;;;;;;;2.30;1.45;;;7.30;99.90;;;;;;5036280;28;20040;-83
2021/01/29 02:23:29;;;;;;;2.20;1.45;;;7.20;99.90;;;;;;5054895;28;20091;-84
2021/01/29 02:25:57;;;;;;;2.15;1.45;;;7.20;99.90;;;;;;5054743;28;20021;-83
2021/01/29 02:28:43;;;;;;;5.50;2.17;;;7.20;99.90;;;;;;5036780;28;20028;-83
2021/01/29 02:31:14;;;;;;;5.10;1.20;;;7.20;99.90;;;;;;5054665;28;20032;-83
2021/01/29 02:34:11;;;;;;;2.03;1.50;;;7.30;99.90;;;;;;5036769;28;20061;-84
2021/01/29 02:37:00;;;;;;;4.45;1.48;;;7.30;99.90;;;;;;5036606;28;20071;-84
2021/01/29 02:39:47;;;;;;;1.88;1.38;;;7.10;99.90;;;;;;5036535;28;20021;-84
2021/01/29 02:43:02;;;;;;;1.58;1.48;;;7.20;99.90;;;;;;5036505;28;20025;-82
2021/01/29 02:45:40;;;;;;;4.35;1.30;;;7.00;99.90;;;;;;5032529;28;20477;-84
2021/01/29 02:48:36;;;;;;;1.40;1.30;;;7.20;99.90;;;;;;5054304;28;20480;-84
2021/01/29 02:51:31;;;;;;;1.60;1.13;;;7.20;99.90;;;;;;5036509;28;20388;-84
2021/01/29 02:54:09;;;;;;;2.03;1.45;;;7.20;99.90;;;;;;5015308;28;20037;-84
2021/01/29 02:56:40;;;;;;;2.83;1.27;;;7.20;99.90;;;;;;5036303;28;20404;-84
2021/01/29 02:59:24;;;;;;;1.63;1.25;;;7.20;99.90;;;;;;5054367;28;20033;-84
2021/01/29 03:02:06;;;;;;;1.75;1.40;;;7.20;99.90;;;;;;5036228;28;20021;-85
2021/01/29 03:04:57;;;;;;;1.70;1.13;;;7.20;99.90;;;;;;5036178;28;20036;-84
2021/01/29 03:07:52;;;;;;;1.55;1.13;;;7.10;99.90;;;;;;5036416;28;20386;-82
2021/01/29 03:10:57;;;;;;;1.63;1.30;;;7.20;99.90;;;;;;4990718;28;20127;-82
2021/01/29 03:13:46;;;;;;;1.38;1.00;;;7.20;99.90;;;;;;5036011;28;20037;-84
2021/01/29 03:16:21;;;;;;;1.98;1.10;;;7.20;99.90;;;;;;5036043;28;20538;-84
2021/01/29 03:19:06;;;;;;;4.72;1.20;;;7.30;99.90;;;;;;5035877;28;20384;-83
2021/01/29 03:21:38;;;;;;;1.38;1.10;;;7.30;99.90;;;;;;5035873;28;20129;-84
2021/01/29 03:24:26;;;;;;;1.33;0.90;;;7.30;99.90;;;;;;5035863;28;20532;-84
2021/01/29 03:27:08;;;;;;;1.02;0.77;;;7.30;99.90;;;;;;5035854;28;20094;-82
2021/01/29 03:29:41;;;;;;;1.85;1.02;;;7.20;99.90;;;;;;5035794;28;20473;-84
2021/01/29 03:32:10;;;;;;;2.65;0.80;;;7.20;99.90;;;;;;5035372;28;20025;-82
2021/01/29 03:34:46;;;;;;;1.25;0.80;;;7.40;99.90;;;;;;5053495;28;20060;-84
2021/01/29 03:37:22;;;;;;;1.75;0.80;;;7.40;99.90;;;;;;5035646;28;20035;-83
2021/01/29 03:39:48;;;;;;;1.92;0.65;;;7.60;99.90;;;;;;5036190;28;20025;-84
2021/01/29 03:42:35;;;;;;;2.20;0.50;;;7.60;99.90;;;;;;5053459;28;20028;-84
2021/01/29 03:45:35;;;;;;;4.13;0.80;;;7.70;99.90;;;;;;5035771;28;20021;-84
2021/01/29 03:48:04;;;;;;;1.98;0.77;;;7.80;99.90;;;;;;4983884;28;20037;-84
2021/01/29 03:50:51;;;;;;;0.55;0.40;;;7.80;99.90;;;;;;5035549;28;20025;-85
2021/01/29 03:53:35;;;;;;;1.08;0.57;;;7.70;99.90;;;;;;5035482;28;20024;-82
2021/01/29 03:56:05;;;;;;;;;;;7.70;99.90;;;;;;5035921;28;20491;-82
2021/01/29 03:58:42;;;;;;;3.28;0.60;;;7.60;99.90;;;;;;5035373;28;19909;-84
2021/01/29 04:01:18;;;;;;;0.82;0.50;;;7.60;99.90;;;;;;5035369;28;20111;-85
2021/01/29 04:04:02;;;;;;;0.93;0.40;;;7.70;99.90;;;;;;5036225;28;20041;-85
2021/01/29 04:06:38;;;;;;;0.50;0.40;;;7.60;99.90;;;;;;5035297;28;20021;-85
2021/01/29 04:09:12;;;;;;;1.23;0.40;;;7.60;99.90;;;;;;5035353;28;20035;-85
2021/01/29 04:11:50;;;;;;;1.58;0.60;;;7.50;99.90;;;;;;5035319;28;20029;-85
2021/01/29 04:14:28;;;;;;;0.32;0.30;;;7.60;99.90;;;;;;5035325;28;20071;-84
2021/01/29 04:16:58;;;;;;;0.50;0.40;;;7.60;99.90;;;;;;5053188;28;20040;-84
2021/01/29 04:19:27;;;;;;;0.63;0.57;;;7.60;99.90;;;;;;5052874;28;20045;-84
2021/01/29 04:22:06;;;;;;;0.40;0.40;;;7.60;99.90;;;;;;5035193;28;20033;-84
2021/01/29 04:24:44;;;;;;;1.48;0.40;;;7.60;99.90;;;;;;5053188;28;20117;-85
2021/01/29 04:27:18;;;;;;;0.70;0.40;;;7.60;99.90;;;;;;5035293;28;20025;-84
2021/01/29 04:29:55;;;;;;;1.45;0.35;;;7.60;99.90;;;;;;5035194;28;20029;-85
2021/01/29 04:32:24;;;;;;;0.50;0.40;;;7.40;99.90;;;;;;5035188;28;20040;-85
2021/01/29 04:34:57;;;;;;;0.50;0.50;;;7.50;99.90;;;;;;5035178;28;20387;-85
2021/01/29 04:37:30;;;;;;;0.65;0.50;;;7.40;99.90;;;;;;5035077;28;20416;-85
2021/01/29 04:40:06;;;;;;;0.77;0.40;;;7.30;99.90;;;;;;5052863;28;20021;-84
2021/01/29 04:42:43;;;;;;;1.23;0.50;;;7.40;99.90;;;;;;5035052;28;20433;-84
2021/01/29 04:45:16;;;;;;;1.40;0.50;;;7.30;99.90;;;;;;5038023;28;20021;-85
2021/01/29 04:48:10;;;;;;;0.60;0.50;;;7.30;99.90;;;;;;5056677;28;20548;-84
2021/01/29 04:50:38;;;;;;;1.40;0.70;;;7.40;99.90;;;;;;5013551;28;20501;-84
2021/01/29 04:53:34;;;;;;;0.85;0.70;;;7.30;99.90;;;;;;5038593;28;20017;-84
2021/01/29 04:56:34;;;;;;;3.75;0.90;;;7.30;99.90;;;;;;5039169;28;20021;-84
2021/01/29 04:59:12;;;;;;;3.67;1.08;;;7.30;99.90;;;;;;5056397;28;20053;-84
2021/01/29 05:02:01;;;;;;;1.20;1.00;;;7.00;99.90;;;;;;5038476;28;20060;-82
2021/01/29 05:04:45;;;;;;;1.10;0.93;;;7.20;99.90;;;;;;5025409;28;20029;-84
2021/01/29 05:07:42;;;;;;;1.88;0.90;;;7.10;99.90;;;;;;5038437;28;20442;-84
2021/01/29 05:10:22;;;;;;;1.70;0.80;;;7.10;99.90;;;;;;5039454;28;20388;-84
2021/01/29 05:13:00;;;;;;;1.00;0.90;;;7.20;99.90;;;;;;5038379;28;20021;-83
2021/01/29 05:15:44;;;;;;;1.83;1.10;;;7.30;99.90;;;;;;5038212;28;20021;-84
2021/01/29 05:18:43;;;;;;;2.33;0.80;;;7.20;99.90;;;;;;5038180;28;20031;-84
2021/01/29 05:21:27;;;;;;;0.77;0.55;;;7.20;99.90;;;;;;5055885;28;20124;-84
2021/01/29 05:23:52;;;;;;;3.42;1.05;;;7.20;99.90;;;;;;5038587;28;20112;-84
2021/01/29 05:26:56;;;;;;;2.90;0.98;;;7.20;99.90;;;;;;5038087;28;20075;-85
2021/01/29 05:29:40;;;;;;;0.77;0.70;;;7.20;99.90;;;;;;4988478;28;20028;-84
2021/01/29 05:32:43;;;;;;;1.13;0.70;;;7.20;99.90;;;;;;5037948;28;20052;-86
2021/01/29 05:35:41;;;;;;;1.00;0.75;;;7.10;99.90;;;;;;5037830;28;20039;-84
2021/01/29 05:38:25;;;;;;;2.50;0.80;;;7.10;99.90;;;;;;5017352;28;20455;-84
2021/01/29 05:41:45;;;;;;;1.52;0.85;;;7.20;99.90;;;;;;5037694;28;20108;-84
2021/01/29 05:44:38;;;;;;;1.17;1.00;;;7.20;99.90;;;;;;5016472;28;20037;-84
2021/01/29 05:47:06;;;;;;;1.50;0.75;;;7.00;99.90;;;;;;5037669;28;20025;-84
2021/01/29 05:49:56;;;;;;;1.02;0.80;;;7.00;99.90;;;;;;5037663;28;20031;-84
2021/01/29 05:52:48;;;;;;;1.30;0.90;;;6.90;99.90;;;;;;5055734;28;20033;-84
2021/01/29 05:55:30;;;;;;;2.90;0.80;;;7.00;99.90;;;;;;5023374;28;20064;-84
2021/01/29 05:58:33;;;;;;;0.80;0.70;;;7.00;99.90;;;;;;5056696;28;20476;-85
2021/01/29 06:01:42;;;;;;;1.80;0.88;;;7.00;99.90;;;;;;5037308;28;20063;-85
2021/01/29 06:04:29;;;;;;;1.40;0.77;;;7.10;99.90;;;;;;5037386;28;20056;-84
2021/01/29 06:07:07;;;;;;;0.57;0.57;;;7.10;99.90;;;;;;5037246;28;20017;-84
2021/01/29 06:09:45;;;;;;;1.15;0.60;;;7.10;99.90;;;;;;5055436;28;20033;-84
2021/01/29 06:12:29;;;;;;;1.63;0.60;;;7.10;99.90;;;;;;5037305;28;20025;-84
2021/01/29 06:15:13;;;;;;;1.02;0.50;;;7.20;99.90;;;;;;5037138;28;20029;-84
2021/01/29 06:17:39;;;;;;;;;;;7.30;99.90;;;;;;5055679;28;20542;-84
2021/01/29 06:20:08;;;;;;;1.95;0.30;;;7.30;99.90;;;;;;5036951;28;19916;-83
2021/01/29 06:22:55;;;;;;;3.40;0.60;;;7.50;99.90;;;;;;5036975;28;20032;-82
2021/01/29 06:25:33;;;;;;;0.60;0.40;;;7.70;99.90;;;;;;5036862;28;20021;-83
2021/01/29 06:28:26;;;;;;;0.77;0.60;;;7.70;99.90;;;;;;5036997;28;20032;-83
2021/01/29 06:31:23;;;;;;;0.73;0.52;;;7.70;99.90;;;;;;5036867;28;20024;-83
2021/01/29 06:34:01;;;;;;;2.47;0.50;;;7.60;99.90;;;;;;5036724;28;20032;-83
2021/01/29 06:37:04;;;;;;;0.70;0.60;;;7.60;99.90;;;;;;5036928;28;20070;-83
2021/01/29 06:39:46;;;;;;;0.70;0.50;;;7.60;99.90;;;;;;5054709;28;20090;-83
2021/01/29 06:42:26;;;;;;;1.00;0.70;;;7.50;99.90;;;;;;5036587;28;20039;-83
2021/01/29 06:45:33;;;;;;;0.40;0.40;;;7.50;99.90;;;;;;5036649;28;20025;-83
2021/01/29 06:48:11;;;;;;;0.80;0.50;;;7.40;99.90;;;;;;5024439;28;20021;-83
2021/01/29 06:51:01;;;;;;;0.55;0.50;;;7.40;99.90;;;;;;5054438;28;20032;-84
2021/01/29 06:53:26;;;;;;;2.40;0.65;;;7.40;99.90;;;;;;5036472;28;20021;-83
2021/01/29 06:56:34;;;;;;;2.00;0.60;;;7.40;99.90;;;;;;5054224;28;20017;-84
2021/01/29 06:59:17;;;;;;;0.82;0.60;;;7.50;99.90;;;;;;5035603;28;20079;-84
2021/01/29 07:02:07;;;;;;;0.85;0.57;;;7.50;99.90;;;;;;5037321;28;20064;-84
2021/01/29 07:05:01;;;;;;;1.05;0.57;;;7.40;99.90;;;;;;5036222;28;20021;-84
2021/01/29 07:07:45;;;;;;;0.43;0.40;;;7.40;99.90;;;;;;5036020;28;20029;-84
2021/01/29 07:10:34;;;;;;;0.75;0.60;;;7.40;99.90;;;;;;5036101;28;20082;-84
2021/01/29 07:13:25;;;;;;;2.05;0.52;;;7.40;99.90;;;;;;5036104;28;20495;-85
2021/01/29 07:16:20;;;;;;;1.35;0.65;;;7.40;99.90;;;;;;5036068;28;20082;-85
2021/01/29 07:18:48;;;;;;;0.60;0.40;;;7.40;99.90;;;;;;5035977;28;20025;-85
2021/01/29 07:21:55;;;;;;;1.48;0.52;;;7.50;99.90;;;;;;5053594;28;20099;-84
2021/01/29 07:24:35;;;;;;;0.88;0.60;;;7.50;99.90;;;;;;5002791;28;20419;-85
2021/01/29 07:27:14;;;;;;;2.17;0.80;;;7.60;99.90;;;;;;5053758;28;20148;-85
2021/01/29 07:29:51;;;;;;;1.45;0.65;;;7.60;99.90;;;;;;5035893;28;20477;-85
2021/01/29 07:32:45;;;;;;;1.83;0.60;;;7.60;99.90;;;;;;5036042;28;20110;-84
2021/01/29 07:35:20;;;;;;;1.52;0.90;;;7.70;99.90;;;;;;5035678;28;20151;-85
2021/01/29 07:38:19;;;;;;;2.75;0.70;;;7.70;99.90;;;;;;5053476;28;20040;-85
2021/01/29 07:41:14;;;;;;;0.98;0.60;;;7.70;99.90;;;;;;5035659;28;20024;-85
2021/01/29 07:43:40;;;;;;;1.55;0.90;;;7.70;99.90;;;;;;5035673;28;20029;-85
2021/01/29 07:46:30;;;;;;;0.50;0.50;;;7.70;99.90;;;;;;5053455;28;20033;-84
2021/01/29 07:49:22;;;;;;;1.00;0.50;;;7.70;99.90;;;;;;5035358;28;20021;-84
2021/01/29 07:52:09;;;;;;;1.63;0.68;;;7.70;99.90;;;;;;5035589;28;20032;-84
2021/01/29 07:54:56;;;;;;;1.27;0.70;;;7.70;99.90;;;;;;5053468;28;20492;-85
2021/01/29 07:57:48;;;;;;;0.93;0.60;;;7.90;99.90;;;;;;5035524;28;20111;-84
2021/01/29 08:00:41;;;;;;;1.52;0.52;;;7.90;99.90;;;;;;5053311;28;20107;-83
2021/01/29 08:03:29;;;;;;;1.02;0.60;;;7.80;99.90;;;;;;5035346;28;20021;-83
2021/01/29 08:06:10;;;;;;;1.20;0.70;;;7.90;99.90;;;;;;5035581;28;20026;-84
2021/01/29 08:09:18;;;;;;;2.53;0.43;;;7.90;99.90;;;;;;5035463;28;20499;-83
2021/01/29 08:11:51;;;;;;;0.98;0.57;;;7.90;99.90;;;;;;4953155;29;20031;-84
2021/01/29 08:14:50;;;;;;;1.52;0.80;;;7.90;99.90;;;;;;5024839;28;20029;-84
2021/01/29 08:17:27;;;;;;;22.63;11.95;;;8.00;99.90;;;;;;5053454;28;20036;-84
2021/01/29 08:20:31;;;;;;;1.92;0.90;;;7.90;99.90;;;;;;5055596;28;20131;-85
2021/01/29 08:23:09;;;;;;;0.93;0.57;;;8.00;99.90;;;;;;5057225;28;20579;-84
2021/01/29 08:25:59;;;;;;;4.22;0.77;;;8.00;99.90;;;;;;5039490;28;20025;-84
2021/01/29 08:28:44;;;;;;;1.80;0.50;;;8.00;99.90;;;;;;5039210;28;20369;-84
2021/01/29 08:31:38;;;;;;;1.58;0.60;;;8.00;99.90;;;;;;5057285;28;20025;-84
2021/01/29 08:34:22;;;;;;;;;;;8.00;99.90;;;;;;5057263;28;20025;-83
2021/01/29 08:37:08;;;;;;;1.90;0.75;;;8.10;99.90;;;;;;5039157;28;20353;-84
2021/01/29 08:39:52;;;;;;;1.38;0.57;;;8.30;99.90;;;;;;5039324;28;20031;-85
2021/01/29 08:42:36;;;;;;;2.80;0.70;;;8.30;99.90;;;;;;5038920;28;20429;-84
2021/01/29 08:45:29;;;;;;;1.58;0.70;;;8.30;99.90;;;;;;5038876;28;20048;-85
2021/01/29 08:48:05;;;;;;;1.45;0.47;;;8.30;99.90;;;;;;5038844;28;20025;-83
2021/01/29 08:50:58;;;;;;;0.70;0.47;;;8.30;99.90;;;;;;5056915;28;20022;-83
2021/01/29 08:53:42;;;;;;;1.65;0.60;;;8.30;99.90;;;;;;5056892;28;20028;-83
2021/01/29 08:56:32;;;;;;;2.65;0.80;;;8.50;99.90;;;;;;5056520;28;20381;-82
2021/01/29 08:59:03;;;;;;;1.98;0.60;;;8.50;99.90;;;;;;5038541;28;20032;-82
2021/01/29 09:01:45;;;;;;;2.05;0.95;;;8.40;99.90;;;;;;5038565;28;20028;-83
2021/01/29 09:04:25;;;;;;;1.83;1.27;;;8.40;99.90;;;;;;5039010;28;20487;-83
2021/01/29 09:06:55;;;;;;;1.20;0.70;;;8.40;99.90;;;;;;5038424;28;20029;-83
2021/01/29 09:09:40;;;;;;;1.98;1.13;;;8.50;99.90;;;;;;5022232;28;20485;-83
2021/01/29 09:12:16;;;;;;;4.07;0.88;;;8.70;99.90;;;;;;5056294;28;20025;-83
2021/01/29 09:14:58;;;;;;;4.65;2.17;;;8.70;99.90;;;;;;5038319;28;20077;-83
2021/01/29 09:17:29;;;;;;;6.00;0.90;;;8.80;99.90;;;;;;5038217;28;20083;-82
2021/01/29 09:20:02;;;;;;;3.85;1.10;;;9.10;99.90;;;;;;5055833;28;20076;-83
2021/01/29 09:22:56;;;;;;;3.38;0.80;;;9.30;99.90;;;;;;5055954;28;20017;-83
2021/01/29 09:25:41;;;;;;;3.72;0.75;;;9.60;99.90;;;;;;5038012;28;20017;-82
2021/01/29 09:28:16;;;;;;;5.03;1.05;;;9.70;99.90;;;;;;5038883;28;20029;-83
2021/01/29 09:30:58;;;;;;;6.10;1.08;;;9.40;99.90;;;;;;5036597;28;20025;-81
2021/01/29 09:33:33;;;;;;;7.18;1.38;;;9.10;99.90;;;;;;5037942;28;20021;-81
2021/01/29 09:36:04;;;;;;;5.35;0.98;;;8.70;99.90;;;;;;5055666;28;20560;-81
2021/01/29 09:38:35;;;;;;;5.05;1.08;;;8.40;99.90;;;;;;5056202;28;20021;-81
2021/01/29 09:41:19;;;;;;;3.38;0.70;;;8.20;99.90;;;;;;5037870;28;20429;-81
2021/01/29 09:43:54;;;;;;;5.68;1.17;;;8.00;99.90;;;;;;5037785;28;20481;-81
2021/01/29 09:46:41;;;;;;;5.75;1.25;;;7.80;99.90;;;;;;5037713;28;20025;-81
2021/01/29 09:49:28;;;;;;;2.00;0.98;;;7.70;99.90;;;;;;5037530;28;20024;-81
2021/01/29 09:52:00;;;;;;;4.82;1.10;;;7.70;99.90;;;;;;5037560;28;20041;-82
2021/01/29 09:54:38;;;;;;;4.68;1.10;;;7.80;99.90;;;;;;5055368;28;20024;-81
2021/01/29 09:57:27;;;;;;;2.33;0.77;;;7.70;99.90;;;;;;5037490;28;20570;-81
2021/01/29 10:00:30;;;;;;;4.75;1.13;;;7.60;99.90;;;;;;5055289;28;20106;-82
2021/01/29 10:03:07;;;;;;;3.95;1.30;;;7.60;99.90;;;;;;5037332;28;20215;-81
2021/01/29 10:05:37;;;;;;;7.93;1.40;;;7.60;99.90;;;;;;5037362;28;20021;-80
2021/01/29 10:08:20;;;;;;;3.75;1.23;;;7.60;99.90;;;;;;5037283;28;20025;-81
2021/01/29 10:11:06;;;;;;;6.75;1.35;;;7.70;99.90;;;;;;5055066;28;20051;-81
2021/01/29 10:13:32;;;;;;;5.15;1.65;;;7.70;99.90;;;;;;5055045;28;20064;-81
2021/01/29 10:16:20;;;;;;;7.28;1.58;;;7.60;99.90;;;;;;5037125;28;20060;-81
2021/01/29 10:19:08;;;;;;;3.90;1.85;;;7.90;99.90;;;;;;5054872;28;20095;-81
2021/01/29 10:21:59;;;;;;;4.55;1.40;;;8.10;99.90;;;;;;5033707;28;20120;-82
2021/01/29 10:24:38;;;;;;;6.45;0.82;;;8.50;99.90;;;;;;5033612;28;20469;-82
2021/01/29 10:27:11;;;;;;;5.03;0.95;;;8.90;99.90;;;;;;5034916;28;20033;-81
2021/01/29 10:29:42;;;;;;;7.97;1.50;;;9.20;99.90;;;;;;5033678;28;20025;-81
2021/01/29 10:32:26;;;;;;;6.95;1.15;;;9.40;99.90;;;;;;5033542;28;20021;-82
2021/01/29 10:35:00;;;;;;;5.38;1.08;;;9.50;99.90;;;;;;5034796;28;20036;-82
2021/01/29 10:37:43;;;;;;;3.95;1.02;;;9.50;99.90;;;;;;5033365;28;20022;-82
2021/01/29 10:40:14;;;;;;;4.72;1.63;;;9.50;99.90;;;;;;5034610;28;20025;-81
2021/01/29 10:43:38;;;;;;;6.28;1.30;;;9.80;99.90;;;;;;5032940;28;20499;-82
2021/01/29 10:46:38;;;;;;;9.88;1.25;;;9.90;99.90;;;;;;4938561;29;20036;-82
2021/01/29 10:49:26;;;;;;;9.02;1.30;;;9.80;99.90;;;;;;4954624;29;20388;-82
2021/01/29 10:51:54;;;;;;;5.88;1.20;;;9.50;99.90;;;;;;5018501;28;20087;-81
2021/01/29 10:54:31;;;;;;;8.75;1.38;;;9.20;99.90;;;;;;5033011;28;20029;-82
2021/01/29 10:57:06;;;;;;;7.85;1.33;;;9.00;99.90;;;;;;5033035;28;20067;-82
2021/01/29 10:59:53;;;;;;;12.05;1.30;;;8.80;99.90;;;;;;5032968;28;20497;-82
2021/01/29 11:02:40;;;;;;;5.20;1.20;;;8.70;99.90;;;;;;5032925;28;20108;-82
2021/01/29 11:05:28;;;;;;;7.55;1.40;;;8.60;99.90;;;;;;5032876;28;20017;-83
2021/01/29 11:08:10;;;;;;;5.93;1.30;;;8.60;99.90;;;;;;5033979;28;20056;-83
2021/01/29 11:10:39;;;;;;;10.27;1.50;;;8.50;99.90;;;;;;5032819;28;20025;-83
2021/01/29 11:13:17;;;;;;;7.30;1.40;;;8.40;99.90;;;;;;5032774;28;20033;-82
2021/01/29 11:16:05;;;;;;;10.07;1.55;;;8.30;99.90;;;;;;5032769;28;20036;-82
2021/01/29 11:18:37;;;;;;;7.07;1.30;;;8.20;99.90;;;;;;5033954;28;20036;-82
2021/01/29 11:21:22;;;;;;;4.95;1.08;;;8.20;99.90;;;;;;5050270;28;20504;-82
2021/01/29 11:24:15;;;;;;;6.57;1.58;;;8.30;99.90;;;;;;5035756;28;20029;-82
2021/01/29 11:27:03;;;;;;;5.43;1.20;;;8.20;99.90;;;;;;5035995;28;20032;-83
2021/01/29 11:29:53;;;;;;;5.35;1.33;;;8.20;99.90;;;;;;5035882;28;20055;-83
2021/01/29 11:32:26;;;;;;;4.68;1.50;;;8.00;99.90;;;;;;5053708;28;20021;-83
2021/01/29 11:35:08;;;;;;;8.88;1.85;;;8.20;99.90;;;;;;5053524;28;20104;-82
2021/01/29 11:37:48;;;;;;;8.63;1.55;;;8.30;99.90;;;;;;5035636;28;20033;-83
2021/01/29 11:40:37;;;;;;;6.22;2.10;;;8.20;99.90;;;;;;5035495;28;20468;-83
2021/01/29 11:43:35;;;;;;;7.82;1.15;;;8.10;99.90;;;;;;5035706;28;20052;-83
2021/01/29 11:46:25;;;;;;;6.13;1.80;;;8.20;99.90;;;;;;5035555;28;20116;-83
2021/01/29 11:49:04;;;;;;;8.07;1.23;;;8.40;99.90;;;;;;5023191;28;20033;-83
2021/01/29 11:51:59;;;;;;;10.23;1.80;;;8.40;99.90;;;;;;5035521;28;20025;-83
2021/01/29 11:54:46;;;;;;;9.93;1.27;;;8.50;99.90;;;;;;5021694;28;20048;-83
2021/01/29 11:57:38;;;;;;;5.53;1.35;;;8.70;99.90;;;;;;5053369;28;20040;-83
2021/01/29 12:00:13;;;;;;;7.63;1.40;;;9.10;99.90;;;;;;5053479;28;20476;-84
2021/01/29 12:02:42;;;;;;;13.10;2.95;;;9.40;99.90;;;;;;5035400;28;20108;-84
2021/01/29 12:05:21;;;;;;;5.95;1.48;;;9.40;99.90;;;;;;5035412;28;20029;-83
2021/01/29 12:08:06;;;;;;;8.98;1.83;;;9.40;99.90;;;;;;5053289;28;20025;-84
2021/01/29 12:10:56;;;;;;;10.80;1.60;;;9.30;99.90;;;;;;5035308;28;20017;-83
2021/01/29 12:13:51;;;;;;;8.82;1.70;;;9.40;99.90;;;;;;5035768;28;20095;-90
2021/01/29 12:16:30;;;;;;;6.53;1.85;;;9.30;99.90;;;;;;5036705;28;20067;-92
2021/01/29 12:18:57;;;;;;;10.50;1.77;;;9.20;99.90;;;;;;5036631;28;20102;-90
2021/01/29 12:21:31;;;;;;;7.85;1.80;;;9.00;99.90;;;;;;5036465;28;20036;-91
2021/01/29 12:24:24;;;;;;;9.20;1.70;;;8.90;99.90;;;;;;5036969;28;20043;-89
2021/01/29 12:27:10;;;;;;;10.25;1.33;;;8.80;99.90;;;;;;5036742;28;20025;-90
2021/01/29 12:29:41;;;;;;;7.82;1.77;;;8.70;99.90;;;;;;5054952;28;20090;-91
2021/01/29 12:32:22;;;;;;;7.95;1.33;;;8.70;99.90;;;;;;5036828;28;20384;-92
2021/01/29 12:35:14;;;;;;;4.65;1.13;;;8.50;99.90;;;;;;5036916;28;20032;-90
2021/01/29 12:38:21;;;;;;;3.40;0.90;;;8.40;99.90;;;;;;5036316;28;20025;-90
2021/01/29 12:41:08;;;;;;;8.98;1.70;;;8.20;99.90;;;;;;5055081;28;20025;-91
2021/01/29 12:43:39;;;;;;;7.35;1.10;;;8.40;99.90;;;;;;5037377;28;20029;-91
2021/01/29 12:46:38;;;;;;;4.28;1.27;;;8.60;99.90;;;;;;5036487;28;20124;-91
2021/01/29 12:49:15;;;;;;;6.10;1.70;;;8.50;99.90;;;;;;5037323;28;20409;-90
2021/01/29 12:51:52;;;;;;;5.57;1.67;;;8.40;99.90;;;;;;5037547;28;20124;-90
2021/01/29 12:54:36;;;;;;;3.90;1.13;;;8.30;99.90;;;;;;5037261;28;20096;-90
2021/01/29 12:57:22;;;;;;;3.57;1.00;;;8.00;99.90;;;;;;5037922;28;20021;-90
2021/01/29 13:00:17;;;;;;;6.93;2.20;;;7.80;99.90;;;;;;5038255;28;20032;-91
2021/01/29 13:02:54;;;;;;;4.13;1.40;;;7.80;99.90;;;;;;5035872;28;20021;-88
2021/01/29 13:06:01;;;;;;;2.40;1.30;;;7.80;99.90;;;;;;5037828;28;20033;-90
2021/01/29 13:08:38;;;;;;;4.38;1.25;;;8.10;99.90;;;;;;5018609;28;20102;-90
2021/01/29 13:11:55;;;;;;;4.38;1.00;;;8.20;99.90;;;;;;5057406;28;20033;-91
2021/01/29 13:14:33;;;;;;;2.65;0.90;;;8.40;99.90;;;;;;5039688;28;20087;-92
2021/01/29 13:17:25;;;;;;;3.80;1.10;;;8.50;99.90;;;;;;5040743;28;20437;-91
2021/01/29 13:20:09;;;;;;;3.25;0.60;;;8.30;99.90;;;;;;5039480;28;20568;-90
2021/01/29 13:22:45;;;;;;;5.97;0.82;;;8.10;99.90;;;;;;5038934;28;20028;-91
2021/01/29 13:25:19;;;;;;;3.05;0.90;;;8.00;99.90;;;;;;5039554;28;20025;-90
2021/01/29 13:27:48;;;;;;;;;;;8.00;99.90;;;;;;5039108;28;20423;-90
2021/01/29 13:30:25;;;;;;;4.35;0.80;;;8.10;99.90;;;;;;5056614;28;20279;-89
2021/01/29 13:32:51;;;;;;;2.92;0.77;;;8.00;99.90;;;;;;5038481;28;20033;-87
2021/01/29 13:35:28;;;;;;;2.42;0.90;;;8.30;99.90;;;;;;5038817;28;20036;-91
2021/01/29 13:38:05;;;;;;;5.20;1.20;;;8.50;99.90;;;;;;5038124;28;20052;-89
2021/01/29 13:40:31;;;;;;;3.97;1.00;;;8.60;99.90;;;;;;5038023;28;20024;-89
2021/01/29 13:43:08;;;;;;;3.20;0.80;;;8.70;99.90;;;;;;5037995;28;20047;-88
2021/01/29 13:45:34;;;;;;;3.83;1.10;;;8.60;99.90;;;;;;5037832;28;20451;-89
2021/01/29 13:48:17;;;;;;;2.97;0.90;;;8.50;99.90;;;;;;5037730;28;20054;-89
2021/01/29 13:50:56;;;;;;;5.50;1.17;;;8.70;99.90;;;;;;5038081;28;20021;-88
2021/01/29 13:53:39;;;;;;;2.72;0.80;;;9.40;99.90;;;;;;5039245;28;20025;-88
2021/01/29 13:56:39;;;;;;;1.85;0.70;;;9.40;99.90;;;;;;5039792;28;20503;-89
2021/01/29 13:59:26;;;;;;;5.95;0.80;;;9.20;99.90;;;;;;5039149;28;20025;-88
2021/01/29 14:02:20;;;;;;;2.45;0.82;;;9.00;99.90;;;;;;5037882;28;20021;-90
2021/01/29 14:04:54;;;;;;;3.33;1.00;;;8.80;99.90;;;;;;5038041;28;20028;-90
2021/01/29 14:07:20;;;;;;;2.50;0.90;;;8.90;99.90;;;;;;5038025;28;20028;-89